sensor_id;sensor_type;location;lat;lon;timestamp;P1;durP1;ratioP1;P2;durP2;ratioP2
44046;SDS011;29713;-33.888;151.150;2023-07-13T00:02:21;4.90;;;2.70;;
44046;SDS011;29713;-33.888;151.150;2023-07-13T00:04:49;5.87;;;2.97;;
44046;SDS011;29713;-33.888;151.150;2023-07-13T00:07:17;4.70;;;2.60;;
44046;SDS011;29713;-33.888;151.150;2023-07-13T00:09:49;6.40;;;2.47;;
44046;SDS011;29713;-33.888;151.150;2023-07-13T00:12:23;4.50;;;2.23;;
44046;SDS011;29713;-33.888;151.150;2023-07-13T00:14:57;3.97;;;2.50;;
44046;SDS011;29713;-33.888;151.150;2023-07-13T00:17:26;6.23;;;2.57;;
44046;SDS011;29713;-33.888;151.150;2023-07-13T00:19:55;4.23;;;2.13;;
44046;SDS011;29713;-33.888;151.150;2023-07-13T00:22:24;4.50;;;1.93;;
44046;SDS011;29713;-33.888;151.150;2023-07-13T00:24:52;3.70;;;1.77;;
44046;SDS011;29713;-33.888;151.150;2023-07-13T00:27:23;5.67;;;2.43;;
44046;SDS011;29713;-33.888;151.150;2023-07-13T00:29:55;3.47;;;2.17;;
44046;SDS011;29713;-33.888;151.150;2023-07-13T00:32:23;3.17;;;1.93;;
44046;SDS011;29713;-33.888;151.150;2023-07-13T00:34:51;6.63;;;1.90;;
44046;SDS011;29713;-33.888;151.150;2023-07-13T00:37:19;5.87;;;2.00;;
44046;SDS011;29713;-33.888;151.150;2023-07-13T00:39:46;4.47;;;1.90;;
44046;SDS011;29713;-33.888;151.150;2023-07-13T00:42:15;8.27;;;2.30;;
44046;SDS011;29713;-33.888;151.150;2023-07-13T00:47:52;2.57;;;1.53;;
44046;SDS011;29713;-33.888;151.150;2023-07-13T00:50:21;6.57;;;2.27;;
44046;SDS011;29713;-33.888;151.150;2023-07-13T00:52:50;4.13;;;2.10;;
44046;SDS011;29713;-33.888;151.150;2023-07-13T00:55:23;2.53;;;1.65;;
44046;SDS011;29713;-33.888;151.150;2023-07-13T00:57:50;5.72;;;2.08;;
44046;SDS011;29713;-33.888;151.150;2023-07-13T01:00:18;3.25;;;1.83;;
44046;SDS011;29713;-33.888;151.150;2023-07-13T01:02:48;4.50;;;2.25;;
44046;SDS011;29713;-33.888;151.150;2023-07-13T01:05:16;3.88;;;1.88;;
44046;SDS011;29713;-33.888;151.150;2023-07-13T01:07:46;3.25;;;1.60;;
44046;SDS011;29713;-33.888;151.150;2023-07-13T01:10:18;5.05;;;2.25;;
44046;SDS011;29713;-33.888;151.150;2023-07-13T01:12:48;3.88;;;1.80;;
44046;SDS011;29713;-33.888;151.150;2023-07-13T01:18:05;6.50;;;2.03;;
44046;SDS011;29713;-33.888;151.150;2023-07-13T01:20:36;4.55;;;1.70;;
44046;SDS011;29713;-33.888;151.150;2023-07-13T01:23:08;2.83;;;1.52;;
44046;SDS011;29713;-33.888;151.150;2023-07-13T01:25:38;4.28;;;1.88;;
44046;SDS011;29713;-33.888;151.150;2023-07-13T01:28:06;4.30;;;2.22;;
44046;SDS011;29713;-33.888;151.150;2023-07-13T01:30:35;3.17;;;1.90;;
44046;SDS011;29713;-33.888;151.150;2023-07-13T01:33:06;6.20;;;1.90;;
44046;SDS011;29713;-33.888;151.150;2023-07-13T01:35:35;3.00;;;1.55;;
44046;SDS011;29713;-33.888;151.150;2023-07-13T01:38:04;3.65;;;1.90;;
44046;SDS011;29713;-33.888;151.150;2023-07-13T01:40:34;3.53;;;1.50;;
44046;SDS011;29713;-33.888;151.150;2023-07-13T01:43:02;4.00;;;1.90;;
44046;SDS011;29713;-33.888;151.150;2023-07-13T01:45:30;4.68;;;1.52;;
44046;SDS011;29713;-33.888;151.150;2023-07-13T01:47:57;1.83;;;1.25;;
44046;SDS011;29713;-33.888;151.150;2023-07-13T01:50:25;3.38;;;1.20;;
44046;SDS011;29713;-33.888;151.150;2023-07-13T01:52:53;1.98;;;1.25;;
44046;SDS011;29713;-33.888;151.150;2023-07-13T01:55:24;5.97;;;1.75;;
44046;SDS011;29713;-33.888;151.150;2023-07-13T01:57:51;2.40;;;1.42;;
44046;SDS011;29713;-33.888;151.150;2023-07-13T02:00:19;2.83;;;1.33;;
44046;SDS011;29713;-33.888;151.150;2023-07-13T02:02:46;1.27;;;1.05;;
44046;SDS011;29713;-33.888;151.150;2023-07-13T02:05:14;3.15;;;1.38;;
44046;SDS011;29713;-33.888;151.150;2023-07-13T02:07:41;2.38;;;1.17;;
44046;SDS011;29713;-33.888;151.150;2023-07-13T02:10:10;2.72;;;1.20;;
44046;SDS011;29713;-33.888;151.150;2023-07-13T02:12:37;4.75;;;1.48;;
44046;SDS011;29713;-33.888;151.150;2023-07-13T02:15:05;4.95;;;1.60;;
44046;SDS011;29713;-33.888;151.150;2023-07-13T02:17:33;4.03;;;1.50;;
44046;SDS011;29713;-33.888;151.150;2023-07-13T02:20:02;1.30;;;1.15;;
44046;SDS011;29713;-33.888;151.150;2023-07-13T02:22:30;2.60;;;1.48;;
44046;SDS011;29713;-33.888;151.150;2023-07-13T02:24:58;2.47;;;1.23;;
44046;SDS011;29713;-33.888;151.150;2023-07-13T02:27:25;1.90;;;1.30;;
44046;SDS011;29713;-33.888;151.150;2023-07-13T02:29:53;2.90;;;1.73;;
44046;SDS011;29713;-33.888;151.150;2023-07-13T02:32:20;2.85;;;1.38;;
44046;SDS011;29713;-33.888;151.150;2023-07-13T02:34:50;2.83;;;1.42;;
44046;SDS011;29713;-33.888;151.150;2023-07-13T02:37:18;2.30;;;1.60;;
44046;SDS011;29713;-33.888;151.150;2023-07-13T02:39:47;2.47;;;1.30;;
44046;SDS011;29713;-33.888;151.150;2023-07-13T02:42:14;3.13;;;1.63;;
44046;SDS011;29713;-33.888;151.150;2023-07-13T02:44:42;4.50;;;1.40;;
44046;SDS011;29713;-33.888;151.150;2023-07-13T02:47:09;4.47;;;1.63;;
44046;SDS011;29713;-33.888;151.150;2023-07-13T02:49:37;3.72;;;1.90;;
44046;SDS011;29713;-33.888;151.150;2023-07-13T02:52:04;4.47;;;1.60;;
44046;SDS011;29713;-33.888;151.150;2023-07-13T02:54:32;4.47;;;1.63;;
44046;SDS011;29713;-33.888;151.150;2023-07-13T02:57:00;2.08;;;1.60;;
44046;SDS011;29713;-33.888;151.150;2023-07-13T02:59:27;3.15;;;1.58;;
44046;SDS011;29713;-33.888;151.150;2023-07-13T03:01:58;1.65;;;1.20;;
44046;SDS011;29713;-33.888;151.150;2023-07-13T03:04:26;3.33;;;1.50;;
44046;SDS011;29713;-33.888;151.150;2023-07-13T03:06:56;3.63;;;1.40;;
44046;SDS011;29713;-33.888;151.150;2023-07-13T03:09:24;4.80;;;1.35;;
44046;SDS011;29713;-33.888;151.150;2023-07-13T03:11:53;2.63;;;1.70;;
44046;SDS011;29713;-33.888;151.150;2023-07-13T03:14:21;3.63;;;1.55;;
44046;SDS011;29713;-33.888;151.150;2023-07-13T03:16:49;1.92;;;1.42;;
44046;SDS011;29713;-33.888;151.150;2023-07-13T03:19:17;4.30;;;1.73;;
44046;SDS011;29713;-33.888;151.150;2023-07-13T03:21:45;3.30;;;1.70;;
44046;SDS011;29713;-33.888;151.150;2023-07-13T03:24:12;4.93;;;1.80;;
44046;SDS011;29713;-33.888;151.150;2023-07-13T03:26:40;3.30;;;1.40;;
44046;SDS011;29713;-33.888;151.150;2023-07-13T03:29:08;4.95;;;1.70;;
44046;SDS011;29713;-33.888;151.150;2023-07-13T03:31:36;3.10;;;1.60;;
44046;SDS011;29713;-33.888;151.150;2023-07-13T03:34:04;3.72;;;1.70;;
44046;SDS011;29713;-33.888;151.150;2023-07-13T03:36:31;5.55;;;1.83;;
44046;SDS011;29713;-33.888;151.150;2023-07-13T03:39:00;8.55;;;2.25;;
44046;SDS011;29713;-33.888;151.150;2023-07-13T03:41:29;4.50;;;1.70;;
44046;SDS011;29713;-33.888;151.150;2023-07-13T03:43:57;3.90;;;1.83;;
44046;SDS011;29713;-33.888;151.150;2023-07-13T03:46:24;7.07;;;1.85;;
44046;SDS011;29713;-33.888;151.150;2023-07-13T03:48:52;3.20;;;1.50;;
44046;SDS011;29713;-33.888;151.150;2023-07-13T03:51:20;4.95;;;1.95;;
44046;SDS011;29713;-33.888;151.150;2023-07-13T03:53:48;3.88;;;1.52;;
44046;SDS011;29713;-33.888;151.150;2023-07-13T03:56:16;6.22;;;1.88;;
44046;SDS011;29713;-33.888;151.150;2023-07-13T03:58:45;3.83;;;1.60;;
44046;SDS011;29713;-33.888;151.150;2023-07-13T04:01:14;3.95;;;1.73;;
44046;SDS011;29713;-33.888;151.150;2023-07-13T04:03:43;2.55;;;1.50;;
44046;SDS011;29713;-33.888;151.150;2023-07-13T04:06:19;7.50;;;1.90;;
44046;SDS011;29713;-33.888;151.150;2023-07-13T04:08:50;3.90;;;1.73;;
44046;SDS011;29713;-33.888;151.150;2023-07-13T04:11:20;2.83;;;1.50;;
44046;SDS011;29713;-33.888;151.150;2023-07-13T04:13:50;4.78;;;1.58;;
44046;SDS011;29713;-33.888;151.150;2023-07-13T04:16:18;4.95;;;1.50;;
44046;SDS011;29713;-33.888;151.150;2023-07-13T04:18:49;3.13;;;1.25;;
44046;SDS011;29713;-33.888;151.150;2023-07-13T04:21:22;4.63;;;1.67;;
44046;SDS011;29713;-33.888;151.150;2023-07-13T04:23:50;4.32;;;1.55;;
44046;SDS011;29713;-33.888;151.150;2023-07-13T04:26:18;3.13;;;1.20;;
44046;SDS011;29713;-33.888;151.150;2023-07-13T04:28:49;2.53;;;1.40;;
44046;SDS011;29713;-33.888;151.150;2023-07-13T04:31:17;8.77;;;1.35;;
44046;SDS011;29713;-33.888;151.150;2023-07-13T04:33:45;3.45;;;1.70;;
44046;SDS011;29713;-33.888;151.150;2023-07-13T04:36:14;5.63;;;1.33;;
44046;SDS011;29713;-33.888;151.150;2023-07-13T04:38:42;3.33;;;1.40;;
44046;SDS011;29713;-33.888;151.150;2023-07-13T04:41:10;4.18;;;1.30;;
44046;SDS011;29713;-33.888;151.150;2023-07-13T04:43:38;3.70;;;1.38;;
44046;SDS011;29713;-33.888;151.150;2023-07-13T04:46:06;4.93;;;1.25;;
44046;SDS011;29713;-33.888;151.150;2023-07-13T04:48:36;2.15;;;1.40;;
44046;SDS011;29713;-33.888;151.150;2023-07-13T04:51:04;5.45;;;1.20;;
44046;SDS011;29713;-33.888;151.150;2023-07-13T04:53:32;2.53;;;1.20;;
44046;SDS011;29713;-33.888;151.150;2023-07-13T04:56:00;6.90;;;1.55;;
44046;SDS011;29713;-33.888;151.150;2023-07-13T04:58:28;17.00;;;2.15;;
44046;SDS011;29713;-33.888;151.150;2023-07-13T05:01:00;7.72;;;1.70;;
44046;SDS011;29713;-33.888;151.150;2023-07-13T05:03:29;3.67;;;1.20;;
44046;SDS011;29713;-33.888;151.150;2023-07-13T05:05:57;2.78;;;1.20;;
44046;SDS011;29713;-33.888;151.150;2023-07-13T05:08:30;2.95;;;1.30;;
44046;SDS011;29713;-33.888;151.150;2023-07-13T05:11:01;3.40;;;1.15;;
44046;SDS011;29713;-33.888;151.150;2023-07-13T05:13:29;2.55;;;1.00;;
44046;SDS011;29713;-33.888;151.150;2023-07-13T05:16:03;2.47;;;1.20;;
44046;SDS011;29713;-33.888;151.150;2023-07-13T05:18:33;3.58;;;1.10;;
44046;SDS011;29713;-33.888;151.150;2023-07-13T05:21:02;2.13;;;0.98;;
44046;SDS011;29713;-33.888;151.150;2023-07-13T05:23:33;1.88;;;0.85;;
44046;SDS011;29713;-33.888;151.150;2023-07-13T05:26:02;2.15;;;1.00;;
44046;SDS011;29713;-33.888;151.150;2023-07-13T05:28:30;5.10;;;1.00;;
44046;SDS011;29713;-33.888;151.150;2023-07-13T05:30:58;2.72;;;1.10;;
44046;SDS011;29713;-33.888;151.150;2023-07-13T05:33:26;5.20;;;1.20;;
44046;SDS011;29713;-33.888;151.150;2023-07-13T05:35:54;0.85;;;0.82;;
44046;SDS011;29713;-33.888;151.150;2023-07-13T05:38:21;2.80;;;0.80;;
44046;SDS011;29713;-33.888;151.150;2023-07-13T05:40:49;1.42;;;0.85;;
44046;SDS011;29713;-33.888;151.150;2023-07-13T05:43:17;1.63;;;0.80;;
44046;SDS011;29713;-33.888;151.150;2023-07-13T05:45:44;3.92;;;0.77;;
44046;SDS011;29713;-33.888;151.150;2023-07-13T05:48:12;1.77;;;0.70;;
44046;SDS011;29713;-33.888;151.150;2023-07-13T05:50:39;2.70;;;0.90;;
44046;SDS011;29713;-33.888;151.150;2023-07-13T05:53:07;2.30;;;0.77;;
44046;SDS011;29713;-33.888;151.150;2023-07-13T05:55:41;1.92;;;1.13;;
44046;SDS011;29713;-33.888;151.150;2023-07-13T05:58:19;1.48;;;0.90;;
44046;SDS011;29713;-33.888;151.150;2023-07-13T06:00:47;1.67;;;0.90;;
44046;SDS011;29713;-33.888;151.150;2023-07-13T06:03:24;1.92;;;1.20;;
44046;SDS011;29713;-33.888;151.150;2023-07-13T06:05:52;2.28;;;0.90;;
44046;SDS011;29713;-33.888;151.150;2023-07-13T06:08:19;3.17;;;1.60;;
44046;SDS011;29713;-33.888;151.150;2023-07-13T06:10:46;3.63;;;1.65;;
44046;SDS011;29713;-33.888;151.150;2023-07-13T06:13:14;2.67;;;1.70;;
44046;SDS011;29713;-33.888;151.150;2023-07-13T06:15:41;5.90;;;1.85;;
44046;SDS011;29713;-33.888;151.150;2023-07-13T06:18:08;4.78;;;1.75;;
44046;SDS011;29713;-33.888;151.150;2023-07-13T06:20:36;3.20;;;1.80;;
44046;SDS011;29713;-33.888;151.150;2023-07-13T06:23:03;3.95;;;2.05;;
44046;SDS011;29713;-33.888;151.150;2023-07-13T06:25:31;4.35;;;2.05;;
44046;SDS011;29713;-33.888;151.150;2023-07-13T06:27:58;6.97;;;3.00;;
44046;SDS011;29713;-33.888;151.150;2023-07-13T06:30:26;4.60;;;2.47;;
44046;SDS011;29713;-33.888;151.150;2023-07-13T06:32:53;7.90;;;2.80;;
44046;SDS011;29713;-33.888;151.150;2023-07-13T06:35:21;8.02;;;3.15;;
44046;SDS011;29713;-33.888;151.150;2023-07-13T06:37:48;6.82;;;2.83;;
44046;SDS011;29713;-33.888;151.150;2023-07-13T06:40:15;4.20;;;2.53;;
44046;SDS011;29713;-33.888;151.150;2023-07-13T06:42:43;9.15;;;2.70;;
44046;SDS011;29713;-33.888;151.150;2023-07-13T06:45:10;8.18;;;2.00;;
44046;SDS011;29713;-33.888;151.150;2023-07-13T06:47:37;7.78;;;2.22;;
44046;SDS011;29713;-33.888;151.150;2023-07-13T06:50:05;5.78;;;2.15;;
44046;SDS011;29713;-33.888;151.150;2023-07-13T06:52:32;6.63;;;2.22;;
44046;SDS011;29713;-33.888;151.150;2023-07-13T06:55:00;5.30;;;2.33;;
44046;SDS011;29713;-33.888;151.150;2023-07-13T06:57:28;6.70;;;2.10;;
44046;SDS011;29713;-33.888;151.150;2023-07-13T06:59:55;8.65;;;2.78;;
44046;SDS011;29713;-33.888;151.150;2023-07-13T07:02:23;10.32;;;2.63;;
44046;SDS011;29713;-33.888;151.150;2023-07-13T07:04:50;7.22;;;2.35;;
44046;SDS011;29713;-33.888;151.150;2023-07-13T07:07:17;11.95;;;2.55;;
44046;SDS011;29713;-33.888;151.150;2023-07-13T07:09:45;6.38;;;2.40;;
44046;SDS011;29713;-33.888;151.150;2023-07-13T07:12:12;9.98;;;2.67;;
44046;SDS011;29713;-33.888;151.150;2023-07-13T07:14:39;8.63;;;2.78;;
44046;SDS011;29713;-33.888;151.150;2023-07-13T07:17:06;6.82;;;2.47;;
44046;SDS011;29713;-33.888;151.150;2023-07-13T07:19:34;9.18;;;2.47;;
44046;SDS011;29713;-33.888;151.150;2023-07-13T07:22:02;11.50;;;2.70;;
44046;SDS011;29713;-33.888;151.150;2023-07-13T07:24:29;10.70;;;2.88;;
44046;SDS011;29713;-33.888;151.150;2023-07-13T07:26:57;13.63;;;3.13;;
44046;SDS011;29713;-33.888;151.150;2023-07-13T07:29:24;12.15;;;3.10;;
44046;SDS011;29713;-33.888;151.150;2023-07-13T07:31:53;6.75;;;2.63;;
44046;SDS011;29713;-33.888;151.150;2023-07-13T07:34:20;14.43;;;3.00;;
44046;SDS011;29713;-33.888;151.150;2023-07-13T07:36:48;6.65;;;2.88;;
44046;SDS011;29713;-33.888;151.150;2023-07-13T07:39:18;10.70;;;3.10;;
44046;SDS011;29713;-33.888;151.150;2023-07-13T07:41:45;12.32;;;3.00;;
44046;SDS011;29713;-33.888;151.150;2023-07-13T07:44:12;10.95;;;3.00;;
44046;SDS011;29713;-33.888;151.150;2023-07-13T07:46:40;7.38;;;2.83;;
44046;SDS011;29713;-33.888;151.150;2023-07-13T07:49:07;7.25;;;2.80;;
44046;SDS011;29713;-33.888;151.150;2023-07-13T07:51:36;17.02;;;3.35;;
44046;SDS011;29713;-33.888;151.150;2023-07-13T07:54:04;9.50;;;3.30;;
44046;SDS011;29713;-33.888;151.150;2023-07-13T07:56:32;8.45;;;3.88;;
44046;SDS011;29713;-33.888;151.150;2023-07-13T07:58:59;12.07;;;3.57;;
44046;SDS011;29713;-33.888;151.150;2023-07-13T08:01:27;18.47;;;3.40;;
44046;SDS011;29713;-33.888;151.150;2023-07-13T08:03:54;9.60;;;3.55;;
44046;SDS011;29713;-33.888;151.150;2023-07-13T08:06:22;14.67;;;4.40;;
44046;SDS011;29713;-33.888;151.150;2023-07-13T08:08:50;11.30;;;3.60;;
44046;SDS011;29713;-33.888;151.150;2023-07-13T08:11:17;9.67;;;3.87;;
44046;SDS011;29713;-33.888;151.150;2023-07-13T08:13:44;12.23;;;3.43;;
44046;SDS011;29713;-33.888;151.150;2023-07-13T08:16:12;7.90;;;3.60;;
44046;SDS011;29713;-33.888;151.150;2023-07-13T08:18:39;5.67;;;3.20;;
44046;SDS011;29713;-33.888;151.150;2023-07-13T08:21:09;7.20;;;3.77;;
44046;SDS011;29713;-33.888;151.150;2023-07-13T08:23:37;8.73;;;3.87;;
44046;SDS011;29713;-33.888;151.150;2023-07-13T08:26:04;9.17;;;3.93;;
44046;SDS011;29713;-33.888;151.150;2023-07-13T08:28:32;7.03;;;3.70;;
44046;SDS011;29713;-33.888;151.150;2023-07-13T08:31:06;5.93;;;3.27;;
44046;SDS011;29713;-33.888;151.150;2023-07-13T08:33:34;6.60;;;3.30;;
44046;SDS011;29713;-33.888;151.150;2023-07-13T08:36:02;8.13;;;3.67;;
44046;SDS011;29713;-33.888;151.150;2023-07-13T08:38:30;7.10;;;3.83;;
44046;SDS011;29713;-33.888;151.150;2023-07-13T08:40:58;7.50;;;3.40;;
44046;SDS011;29713;-33.888;151.150;2023-07-13T08:43:37;9.73;;;3.57;;
44046;SDS011;29713;-33.888;151.150;2023-07-13T08:54:41;11.87;;;4.50;;
44046;SDS011;29713;-33.888;151.150;2023-07-13T08:57:15;9.20;;;3.90;;
44046;SDS011;29713;-33.888;151.150;2023-07-13T08:59:45;9.93;;;4.40;;
44046;SDS011;29713;-33.888;151.150;2023-07-13T09:05:36;7.17;;;4.30;;
44046;SDS011;29713;-33.888;151.150;2023-07-13T09:08:25;8.50;;;4.63;;
44046;SDS011;29713;-33.888;151.150;2023-07-13T09:17:02;12.60;;;7.37;;
44046;SDS011;29713;-33.888;151.150;2023-07-13T09:20:37;16.47;;;9.33;;
44046;SDS011;29713;-33.888;151.150;2023-07-13T09:22:52;18.10;;;11.10;;
44046;SDS011;29713;-33.888;151.150;2023-07-13T09:25:22;21.87;;;12.03;;
44046;SDS011;29713;-33.888;151.150;2023-07-13T09:33:25;28.87;;;16.40;;
44046;SDS011;29713;-33.888;151.150;2023-07-13T09:35:55;26.73;;;14.50;;
44046;SDS011;29713;-33.888;151.150;2023-07-13T09:38:24;26.23;;;14.30;;
44046;SDS011;29713;-33.888;151.150;2023-07-13T09:46:38;17.17;;;10.40;;
44046;SDS011;29713;-33.888;151.150;2023-07-13T09:49:13;18.23;;;10.67;;
44046;SDS011;29713;-33.888;151.150;2023-07-13T09:51:41;20.07;;;11.77;;
44046;SDS011;29713;-33.888;151.150;2023-07-13T09:54:19;19.90;;;11.13;;
44046;SDS011;29713;-33.888;151.150;2023-07-13T09:56:59;17.60;;;9.77;;
44046;SDS011;29713;-33.888;151.150;2023-07-13T09:59:32;15.57;;;10.53;;
44046;SDS011;29713;-33.888;151.150;2023-07-13T10:02:00;16.33;;;9.70;;
44046;SDS011;29713;-33.888;151.150;2023-07-13T10:04:31;15.80;;;9.73;;
44046;SDS011;29713;-33.888;151.150;2023-07-13T10:07:07;14.83;;;8.70;;
44046;SDS011;29713;-33.888;151.150;2023-07-13T10:09:36;14.27;;;9.50;;
44046;SDS011;29713;-33.888;151.150;2023-07-13T10:12:04;12.33;;;8.20;;
44046;SDS011;29713;-33.888;151.150;2023-07-13T10:14:43;15.13;;;8.30;;
44046;SDS011;29713;-33.888;151.150;2023-07-13T10:17:12;16.67;;;8.00;;
44046;SDS011;29713;-33.888;151.150;2023-07-13T10:19:41;12.20;;;7.73;;
44046;SDS011;29713;-33.888;151.150;2023-07-13T10:25:11;11.43;;;6.57;;
44046;SDS011;29713;-33.888;151.150;2023-07-13T10:27:45;14.93;;;6.93;;
44046;SDS011;29713;-33.888;151.150;2023-07-13T10:30:15;13.30;;;6.00;;
44046;SDS011;29713;-33.888;151.150;2023-07-13T10:32:45;12.07;;;6.23;;
44046;SDS011;29713;-33.888;151.150;2023-07-13T10:35:14;11.77;;;6.33;;
44046;SDS011;29713;-33.888;151.150;2023-07-13T10:43:38;10.80;;;6.27;;
44046;SDS011;29713;-33.888;151.150;2023-07-13T10:46:12;13.63;;;6.83;;
44046;SDS011;29713;-33.888;151.150;2023-07-13T10:48:46;10.77;;;6.87;;
44046;SDS011;29713;-33.888;151.150;2023-07-13T10:51:18;11.17;;;6.37;;
44046;SDS011;29713;-33.888;151.150;2023-07-13T10:53:47;10.97;;;6.30;;
44046;SDS011;29713;-33.888;151.150;2023-07-13T10:56:34;9.50;;;5.80;;
44046;SDS011;29713;-33.888;151.150;2023-07-13T11:01:49;12.67;;;6.00;;
44046;SDS011;29713;-33.888;151.150;2023-07-13T11:04:42;10.07;;;5.90;;
44046;SDS011;29713;-33.888;151.150;2023-07-13T11:07:24;9.20;;;5.83;;
44046;SDS011;29713;-33.888;151.150;2023-07-13T11:09:58;9.43;;;5.40;;
44046;SDS011;29713;-33.888;151.150;2023-07-13T11:13:29;9.30;;;5.30;;
44046;SDS011;29713;-33.888;151.150;2023-07-13T11:15:28;9.13;;;5.67;;
44046;SDS011;29713;-33.888;151.150;2023-07-13T11:18:03;9.07;;;5.63;;
44046;SDS011;29713;-33.888;151.150;2023-07-13T11:20:39;11.33;;;5.43;;
44046;SDS011;29713;-33.888;151.150;2023-07-13T11:23:09;9.87;;;5.90;;
44046;SDS011;29713;-33.888;151.150;2023-07-13T11:25:42;10.27;;;5.53;;
44046;SDS011;29713;-33.888;151.150;2023-07-13T11:30:50;9.13;;;5.97;;
44046;SDS011;29713;-33.888;151.150;2023-07-13T11:33:28;10.60;;;5.60;;
44046;SDS011;29713;-33.888;151.150;2023-07-13T11:41:45;12.07;;;5.67;;
44046;SDS011;29713;-33.888;151.150;2023-07-13T11:44:13;10.13;;;5.60;;
44046;SDS011;29713;-33.888;151.150;2023-07-13T11:46:49;10.33;;;5.70;;
44046;SDS011;29713;-33.888;151.150;2023-07-13T11:49:19;8.93;;;5.93;;
44046;SDS011;29713;-33.888;151.150;2023-07-13T11:51:48;10.33;;;6.00;;
44046;SDS011;29713;-33.888;151.150;2023-07-13T11:55:12;12.73;;;5.70;;
44046;SDS011;29713;-33.888;151.150;2023-07-13T12:00:17;9.43;;;5.93;;
44046;SDS011;29713;-33.888;151.150;2023-07-13T12:02:50;9.90;;;5.73;;
44046;SDS011;29713;-33.888;151.150;2023-07-13T12:05:19;11.57;;;6.07;;
44046;SDS011;29713;-33.888;151.150;2023-07-13T12:07:47;12.73;;;6.70;;
44046;SDS011;29713;-33.888;151.150;2023-07-13T12:13:00;9.33;;;5.77;;
44046;SDS011;29713;-33.888;151.150;2023-07-13T12:15:36;10.93;;;5.50;;
44046;SDS011;29713;-33.888;151.150;2023-07-13T12:18:15;9.50;;;5.57;;
44046;SDS011;29713;-33.888;151.150;2023-07-13T12:20:50;8.47;;;5.53;;
44046;SDS011;29713;-33.888;151.150;2023-07-13T12:25:51;11.50;;;6.47;;
44046;SDS011;29713;-33.888;151.150;2023-07-13T12:28:22;9.33;;;5.13;;
44046;SDS011;29713;-33.888;151.150;2023-07-13T12:30:59;10.37;;;5.90;;
44046;SDS011;29713;-33.888;151.150;2023-07-13T12:33:28;12.37;;;5.67;;
44046;SDS011;29713;-33.888;151.150;2023-07-13T12:35:59;10.50;;;5.47;;
44046;SDS011;29713;-33.888;151.150;2023-07-13T12:38:29;13.20;;;6.10;;
44046;SDS011;29713;-33.888;151.150;2023-07-13T12:40:58;11.90;;;6.20;;
44046;SDS011;29713;-33.888;151.150;2023-07-13T12:43:28;11.50;;;6.83;;
44046;SDS011;29713;-33.888;151.150;2023-07-13T12:46:14;13.17;;;8.03;;
44046;SDS011;29713;-33.888;151.150;2023-07-13T12:48:50;13.33;;;7.07;;
44046;SDS011;29713;-33.888;151.150;2023-07-13T12:51:24;14.53;;;7.47;;
44046;SDS011;29713;-33.888;151.150;2023-07-13T12:53:57;13.03;;;7.50;;
44046;SDS011;29713;-33.888;151.150;2023-07-13T12:56:35;13.23;;;7.73;;
44046;SDS011;29713;-33.888;151.150;2023-07-13T12:59:03;13.60;;;7.70;;
44046;SDS011;29713;-33.888;151.150;2023-07-13T13:01:32;14.90;;;8.37;;
44046;SDS011;29713;-33.888;151.150;2023-07-13T13:04:04;15.07;;;7.70;;
44046;SDS011;29713;-33.888;151.150;2023-07-13T13:06:34;14.43;;;7.20;;
44046;SDS011;29713;-33.888;151.150;2023-07-13T13:09:03;13.93;;;6.97;;
44046;SDS011;29713;-33.888;151.150;2023-07-13T13:11:35;12.30;;;7.00;;
44046;SDS011;29713;-33.888;151.150;2023-07-13T13:14:04;12.27;;;6.60;;
44046;SDS011;29713;-33.888;151.150;2023-07-13T13:16:34;12.13;;;6.93;;
44046;SDS011;29713;-33.888;151.150;2023-07-13T13:19:15;15.73;;;6.80;;
44046;SDS011;29713;-33.888;151.150;2023-07-13T13:21:44;17.07;;;6.47;;
44046;SDS011;29713;-33.888;151.150;2023-07-13T13:24:14;14.10;;;6.23;;
44046;SDS011;29713;-33.888;151.150;2023-07-13T13:26:43;10.90;;;6.20;;
44046;SDS011;29713;-33.888;151.150;2023-07-13T13:29:15;13.10;;;6.50;;
44046;SDS011;29713;-33.888;151.150;2023-07-13T13:31:44;14.77;;;6.50;;
44046;SDS011;29713;-33.888;151.150;2023-07-13T13:34:12;12.13;;;6.13;;
44046;SDS011;29713;-33.888;151.150;2023-07-13T13:36:41;13.60;;;6.23;;
44046;SDS011;29713;-33.888;151.150;2023-07-13T13:39:16;12.67;;;6.67;;
44046;SDS011;29713;-33.888;151.150;2023-07-13T13:41:47;18.13;;;6.60;;
44046;SDS011;29713;-33.888;151.150;2023-07-13T13:44:16;10.77;;;6.17;;
44046;SDS011;29713;-33.888;151.150;2023-07-13T13:46:45;9.27;;;6.07;;
44046;SDS011;29713;-33.888;151.150;2023-07-13T13:49:15;12.13;;;6.47;;
44046;SDS011;29713;-33.888;151.150;2023-07-13T13:51:45;11.30;;;6.03;;
44046;SDS011;29713;-33.888;151.150;2023-07-13T13:54:13;15.73;;;6.20;;
44046;SDS011;29713;-33.888;151.150;2023-07-13T13:56:42;12.77;;;5.97;;
44046;SDS011;29713;-33.888;151.150;2023-07-13T13:59:11;11.70;;;5.63;;
44046;SDS011;29713;-33.888;151.150;2023-07-13T14:01:40;11.87;;;6.03;;
44046;SDS011;29713;-33.888;151.150;2023-07-13T14:04:15;17.50;;;6.40;;
44046;SDS011;29713;-33.888;151.150;2023-07-13T14:06:47;13.37;;;5.80;;
44046;SDS011;29713;-33.888;151.150;2023-07-13T14:09:16;8.30;;;5.70;;
44046;SDS011;29713;-33.888;151.150;2023-07-13T14:11:45;10.77;;;5.90;;
44046;SDS011;29713;-33.888;151.150;2023-07-13T14:14:15;9.50;;;5.50;;
44046;SDS011;29713;-33.888;151.150;2023-07-13T14:16:52;13.13;;;5.83;;
44046;SDS011;29713;-33.888;151.150;2023-07-13T14:19:23;10.07;;;5.97;;
44046;SDS011;29713;-33.888;151.150;2023-07-13T14:21:50;12.37;;;5.53;;
44046;SDS011;29713;-33.888;151.150;2023-07-13T14:24:22;13.97;;;6.03;;
44046;SDS011;29713;-33.888;151.150;2023-07-13T14:26:49;7.50;;;4.50;;
44046;SDS011;29713;-33.888;151.150;2023-07-13T14:29:18;11.97;;;5.87;;
44046;SDS011;29713;-33.888;151.150;2023-07-13T14:31:50;8.57;;;5.20;;
44046;SDS011;29713;-33.888;151.150;2023-07-13T14:34:18;11.60;;;5.33;;
44046;SDS011;29713;-33.888;151.150;2023-07-13T14:36:47;10.03;;;5.50;;
44046;SDS011;29713;-33.888;151.150;2023-07-13T14:39:20;11.90;;;5.30;;
44046;SDS011;29713;-33.888;151.150;2023-07-13T14:41:52;9.60;;;5.23;;
44046;SDS011;29713;-33.888;151.150;2023-07-13T14:44:25;10.37;;;5.20;;
44046;SDS011;29713;-33.888;151.150;2023-07-13T14:46:55;11.07;;;4.97;;
44046;SDS011;29713;-33.888;151.150;2023-07-13T14:52:15;10.37;;;4.87;;
44046;SDS011;29713;-33.888;151.150;2023-07-13T14:54:45;11.87;;;4.90;;
44046;SDS011;29713;-33.888;151.150;2023-07-13T14:57:13;9.30;;;5.37;;
44046;SDS011;29713;-33.888;151.150;2023-07-13T14:59:44;9.87;;;4.90;;
44046;SDS011;29713;-33.888;151.150;2023-07-13T15:02:27;11.63;;;5.10;;
44046;SDS011;29713;-33.888;151.150;2023-07-13T15:04:57;10.00;;;4.97;;
44046;SDS011;29713;-33.888;151.150;2023-07-13T15:07:25;14.70;;;5.80;;
44046;SDS011;29713;-33.888;151.150;2023-07-13T15:09:52;7.77;;;5.40;;
44046;SDS011;29713;-33.888;151.150;2023-07-13T15:12:20;9.07;;;5.33;;
44046;SDS011;29713;-33.888;151.150;2023-07-13T15:14:50;10.83;;;5.43;;
44046;SDS011;29713;-33.888;151.150;2023-07-13T15:17:26;11.30;;;6.00;;
44046;SDS011;29713;-33.888;151.150;2023-07-13T15:19:54;13.67;;;5.70;;
44046;SDS011;29713;-33.888;151.150;2023-07-13T15:22:22;12.33;;;6.20;;
44046;SDS011;29713;-33.888;151.150;2023-07-13T15:24:49;11.23;;;6.10;;
44046;SDS011;29713;-33.888;151.150;2023-07-13T15:27:17;11.80;;;6.33;;